sensor_id;sensor_type;location;lat;lon;timestamp;temperature;humidity
1626;DHT22;806;48.770;9.156;2023-05-10T00:01:50;14.50;99.90
1626;DHT22;806;48.770;9.156;2023-05-10T00:04:17;14.70;99.90
1626;DHT22;806;48.770;9.156;2023-05-10T00:06:44;14.90;99.90
1626;DHT22;806;48.770;9.156;2023-05-10T00:09:11;14.80;99.90
1626;DHT22;806;48.770;9.156;2023-05-10T00:11:38;14.70;99.90
1626;DHT22;806;48.770;9.156;2023-05-10T00:14:06;14.80;99.90
1626;DHT22;806;48.770;9.156;2023-05-10T00:16:33;14.60;99.90
1626;DHT22;806;48.770;9.156;2023-05-10T00:19:00;14.60;99.90
1626;DHT22;806;48.770;9.156;2023-05-10T00:21:27;14.60;99.90
1626;DHT22;806;48.770;9.156;2023-05-10T00:23:54;14.50;99.90
1626;DHT22;806;48.770;9.156;2023-05-10T00:26:21;14.40;99.90
1626;DHT22;806;48.770;9.156;2023-05-10T00:28:48;14.40;99.90
1626;DHT22;806;48.770;9.156;2023-05-10T00:31:17;14.40;99.90
1626;DHT22;806;48.770;9.156;2023-05-10T00:33:44;14.60;99.90
1626;DHT22;806;48.770;9.156;2023-05-10T00:36:11;14.50;99.90
1626;DHT22;806;48.770;9.156;2023-05-10T00:38:38;14.50;99.90
1626;DHT22;806;48.770;9.156;2023-05-10T00:41:06;14.40;99.90
1626;DHT22;806;48.770;9.156;2023-05-10T00:43:33;14.40;99.90
1626;DHT22;806;48.770;9.156;2023-05-10T00:46:00;14.40;99.90
1626;DHT22;806;48.770;9.156;2023-05-10T00:48:30;14.40;99.90
1626;DHT22;806;48.770;9.156;2023-05-10T00:50:56;14.40;99.90
1626;DHT22;806;48.770;9.156;2023-05-10T00:53:33;14.30;99.90
1626;DHT22;806;48.770;9.156;2023-05-10T00:56:01;14.40;99.90
1626;DHT22;806;48.770;9.156;2023-05-10T00:58:28;14.50;99.90
1626;DHT22;806;48.770;9.156;2023-05-10T01:00:56;14.50;99.90
1626;DHT22;806;48.770;9.156;2023-05-10T01:03:24;14.50;99.90
1626;DHT22;806;48.770;9.156;2023-05-10T01:05:53;14.40;99.90
1626;DHT22;806;48.770;9.156;2023-05-10T01:08:21;14.20;99.90
1626;DHT22;806;48.770;9.156;2023-05-10T01:10:48;14.30;99.90
1626;DHT22;806;48.770;9.156;2023-05-10T01:13:23;14.30;99.90
1626;DHT22;806;48.770;9.156;2023-05-10T01:15:52;14.20;99.90
1626;DHT22;806;48.770;9.156;2023-05-10T01:18:20;14.30;99.90
1626;DHT22;806;48.770;9.156;2023-05-10T01:20:54;14.30;99.90
1626;DHT22;806;48.770;9.156;2023-05-10T01:23:36;14.10;99.90
1626;DHT22;806;48.770;9.156;2023-05-10T01:26:36;14.10;99.90
1626;DHT22;806;48.770;9.156;2023-05-10T01:29:30;14.00;99.90
1626;DHT22;806;48.770;9.156;2023-05-10T01:32:20;14.20;99.90
1626;DHT22;806;48.770;9.156;2023-05-10T01:34:54;14.20;99.90
1626;DHT22;806;48.770;9.156;2023-05-10T01:37:31;14.20;99.90
1626;DHT22;806;48.770;9.156;2023-05-10T01:40:03;14.20;99.90
1626;DHT22;806;48.770;9.156;2023-05-10T01:42:41;14.10;99.90
1626;DHT22;806;48.770;9.156;2023-05-10T01:45:18;14.10;99.90
1626;DHT22;806;48.770;9.156;2023-05-10T01:47:53;14.10;99.90
1626;DHT22;806;48.770;9.156;2023-05-10T01:50:24;14.10;99.90
1626;DHT22;806;48.770;9.156;2023-05-10T01:52:57;14.20;99.90
1626;DHT22;806;48.770;9.156;2023-05-10T01:55:27;14.20;99.90
1626;DHT22;806;48.770;9.156;2023-05-10T01:58:01;14.20;99.90
1626;DHT22;806;48.770;9.156;2023-05-10T02:00:29;14.10;99.90
1626;DHT22;806;48.770;9.156;2023-05-10T02:03:01;14.10;99.90
1626;DHT22;806;48.770;9.156;2023-05-10T02:05:34;14.10;99.90
1626;DHT22;806;48.770;9.156;2023-05-10T02:08:05;14.10;99.90
1626;DHT22;806;48.770;9.156;2023-05-10T02:10:34;14.00;99.90
1626;DHT22;806;48.770;9.156;2023-05-10T02:13:02;13.90;99.90
1626;DHT22;806;48.770;9.156;2023-05-10T02:15:30;13.90;99.90
1626;DHT22;806;48.770;9.156;2023-05-10T02:18:00;13.80;99.90
1626;DHT22;806;48.770;9.156;2023-05-10T02:20:31;13.80;99.90
1626;DHT22;806;48.770;9.156;2023-05-10T02:22:59;13.80;99.90
1626;DHT22;806;48.770;9.156;2023-05-10T02:25:29;13.80;99.90
1626;DHT22;806;48.770;9.156;2023-05-10T02:27:57;13.70;99.90
1626;DHT22;806;48.770;9.156;2023-05-10T02:30:25;13.70;99.90
1626;DHT22;806;48.770;9.156;2023-05-10T02:32:53;13.70;99.90
1626;DHT22;806;48.770;9.156;2023-05-10T02:35:22;13.70;99.90
1626;DHT22;806;48.770;9.156;2023-05-10T02:37:52;13.70;99.90
1626;DHT22;806;48.770;9.156;2023-05-10T02:40:19;13.60;99.90
1626;DHT22;806;48.770;9.156;2023-05-10T02:42:50;13.60;99.90
1626;DHT22;806;48.770;9.156;2023-05-10T02:45:21;13.60;99.90
1626;DHT22;806;48.770;9.156;2023-05-10T02:47:50;13.60;99.90
1626;DHT22;806;48.770;9.156;2023-05-10T02:50:17;13.60;99.90
1626;DHT22;806;48.770;9.156;2023-05-10T02:52:49;13.60;99.90
1626;DHT22;806;48.770;9.156;2023-05-10T02:55:21;13.60;99.90
1626;DHT22;806;48.770;9.156;2023-05-10T02:57:51;13.70;99.90
1626;DHT22;806;48.770;9.156;2023-05-10T03:00:19;13.70;99.90
1626;DHT22;806;48.770;9.156;2023-05-10T03:02:46;13.70;99.90
1626;DHT22;806;48.770;9.156;2023-05-10T03:05:13;13.70;99.90
1626;DHT22;806;48.770;9.156;2023-05-10T03:07:40;13.70;99.90
1626;DHT22;806;48.770;9.156;2023-05-10T03:10:09;13.60;99.90
1626;DHT22;806;48.770;9.156;2023-05-10T03:12:49;13.60;99.90
1626;DHT22;806;48.770;9.156;2023-05-10T03:15:24;13.60;99.90
1626;DHT22;806;48.770;9.156;2023-05-10T03:17:56;13.60;99.90
1626;DHT22;806;48.770;9.156;2023-05-10T03:20:26;13.60;99.90
1626;DHT22;806;48.770;9.156;2023-05-10T03:23:02;13.60;99.90
1626;DHT22;806;48.770;9.156;2023-05-10T03:25:33;13.50;99.90
1626;DHT22;806;48.770;9.156;2023-05-10T03:28:01;13.60;99.90
1626;DHT22;806;48.770;9.156;2023-05-10T03:30:29;13.70;99.90
1626;DHT22;806;48.770;9.156;2023-05-10T03:32:57;13.80;99.90
1626;DHT22;806;48.770;9.156;2023-05-10T03:35:24;13.70;99.90
1626;DHT22;806;48.770;9.156;2023-05-10T03:37:51;13.70;99.90
1626;DHT22;806;48.770;9.156;2023-05-10T03:40:18;13.80;99.90
1626;DHT22;806;48.770;9.156;2023-05-10T03:42:46;13.90;99.90
1626;DHT22;806;48.770;9.156;2023-05-10T03:45:13;13.90;99.90
1626;DHT22;806;48.770;9.156;2023-05-10T03:47:40;13.80;99.90
1626;DHT22;806;48.770;9.156;2023-05-10T03:50:08;13.80;99.90
1626;DHT22;806;48.770;9.156;2023-05-10T03:52:35;13.80;99.90
1626;DHT22;806;48.770;9.156;2023-05-10T03:55:05;13.90;99.90
1626;DHT22;806;48.770;9.156;2023-05-10T03:57:33;13.90;99.90
1626;DHT22;806;48.770;9.156;2023-05-10T04:00:02;13.90;99.90
1626;DHT22;806;48.770;9.156;2023-05-10T04:02:29;13.90;99.90
1626;DHT22;806;48.770;9.156;2023-05-10T04:04:56;13.80;99.90
1626;DHT22;806;48.770;9.156;2023-05-10T04:07:23;13.80;99.90
1626;DHT22;806;48.770;9.156;2023-05-10T04:09:50;13.70;99.90
1626;DHT22;806;48.770;9.156;2023-05-10T04:12:17;13.60;99.90
1626;DHT22;806;48.770;9.156;2023-05-10T04:14:43;13.60;99.90
1626;DHT22;806;48.770;9.156;2023-05-10T04:17:12;13.60;99.90
1626;DHT22;806;48.770;9.156;2023-05-10T04:19:39;13.70;99.90
1626;DHT22;806;48.770;9.156;2023-05-10T04:22:06;13.70;99.90
1626;DHT22;806;48.770;9.156;2023-05-10T04:24:33;13.70;99.90
1626;DHT22;806;48.770;9.156;2023-05-10T04:27:00;13.70;99.90
1626;DHT22;806;48.770;9.156;2023-05-10T04:29:27;13.70;99.90
1626;DHT22;806;48.770;9.156;2023-05-10T04:31:54;13.80;99.90
1626;DHT22;806;48.770;9.156;2023-05-10T04:34:23;13.70;99.90
1626;DHT22;806;48.770;9.156;2023-05-10T04:36:51;13.70;99.90
1626;DHT22;806;48.770;9.156;2023-05-10T04:39:17;13.70;99.90
1626;DHT22;806;48.770;9.156;2023-05-10T04:41:44;13.60;99.90
1626;DHT22;806;48.770;9.156;2023-05-10T04:44:11;13.60;99.90
1626;DHT22;806;48.770;9.156;2023-05-10T04:46:38;13.60;99.90
1626;DHT22;806;48.770;9.156;2023-05-10T04:49:05;13.50;99.90
1626;DHT22;806;48.770;9.156;2023-05-10T04:51:34;13.60;99.90
1626;DHT22;806;48.770;9.156;2023-05-10T04:54:01;13.60;99.90
1626;DHT22;806;48.770;9.156;2023-05-10T04:56:28;13.70;99.90
1626;DHT22;806;48.770;9.156;2023-05-10T04:58:55;13.70;99.90
1626;DHT22;806;48.770;9.156;2023-05-10T05:01:22;13.70;99.90
1626;DHT22;806;48.770;9.156;2023-05-10T05:03:49;13.70;99.90
1626;DHT22;806;48.770;9.156;2023-05-10T05:06:18;13.70;99.90
1626;DHT22;806;48.770;9.156;2023-05-10T05:08:47;13.70;99.90
1626;DHT22;806;48.770;9.156;2023-05-10T05:11:15;13.80;99.90
1626;DHT22;806;48.770;9.156;2023-05-10T05:13:43;13.80;99.90
1626;DHT22;806;48.770;9.156;2023-05-10T05:16:10;13.80;99.90
1626;DHT22;806;48.770;9.156;2023-05-10T05:18:37;13.80;99.90
1626;DHT22;806;48.770;9.156;2023-05-10T05:21:13;14.00;99.90
1626;DHT22;806;48.770;9.156;2023-05-10T05:23:40;14.20;99.90
1626;DHT22;806;48.770;9.156;2023-05-10T05:26:09;14.20;99.90
1626;DHT22;806;48.770;9.156;2023-05-10T05:28:36;14.30;99.90
1626;DHT22;806;48.770;9.156;2023-05-10T05:31:03;14.40;99.90
1626;DHT22;806;48.770;9.156;2023-05-10T05:33:31;14.30;99.90
1626;DHT22;806;48.770;9.156;2023-05-10T05:36:00;14.30;99.90
1626;DHT22;806;48.770;9.156;2023-05-10T05:38:27;14.40;99.90
1626;DHT22;806;48.770;9.156;2023-05-10T05:40:54;14.50;99.90
1626;DHT22;806;48.770;9.156;2023-05-10T05:43:23;14.40;99.90
1626;DHT22;806;48.770;9.156;2023-05-10T05:45:52;14.40;99.90
1626;DHT22;806;48.770;9.156;2023-05-10T05:48:19;14.40;99.90
1626;DHT22;806;48.770;9.156;2023-05-10T05:50:46;14.50;99.90
1626;DHT22;806;48.770;9.156;2023-05-10T05:53:13;14.50;99.90
1626;DHT22;806;48.770;9.156;2023-05-10T05:55:51;14.50;99.90
1626;DHT22;806;48.770;9.156;2023-05-10T05:58:18;14.60;99.90
1626;DHT22;806;48.770;9.156;2023-05-10T06:00:46;14.70;99.90
1626;DHT22;806;48.770;9.156;2023-05-10T06:03:13;14.80;99.90
1626;DHT22;806;48.770;9.156;2023-05-10T06:05:41;14.80;99.90
1626;DHT22;806;48.770;9.156;2023-05-10T06:08:08;14.70;99.90
1626;DHT22;806;48.770;9.156;2023-05-10T06:10:35;14.70;99.90
1626;DHT22;806;48.770;9.156;2023-05-10T06:13:02;14.80;99.90
1626;DHT22;806;48.770;9.156;2023-05-10T06:15:29;14.80;99.90
1626;DHT22;806;48.770;9.156;2023-05-10T06:17:57;14.70;99.90
1626;DHT22;806;48.770;9.156;2023-05-10T06:20:25;14.60;99.90
1626;DHT22;806;48.770;9.156;2023-05-10T06:22:52;14.60;99.90
1626;DHT22;806;48.770;9.156;2023-05-10T06:25:19;14.60;99.90
1626;DHT22;806;48.770;9.156;2023-05-10T06:27:46;14.80;99.90
1626;DHT22;806;48.770;9.156;2023-05-10T06:30:13;14.70;99.90
1626;DHT22;806;48.770;9.156;2023-05-10T06:32:41;14.90;99.90
1626;DHT22;806;48.770;9.156;2023-05-10T06:35:11;14.90;99.90
1626;DHT22;806;48.770;9.156;2023-05-10T06:37:38;15.10;99.90
1626;DHT22;806;48.770;9.156;2023-05-10T06:40:06;15.00;99.90
1626;DHT22;806;48.770;9.156;2023-05-10T06:42:34;14.90;99.90
1626;DHT22;806;48.770;9.156;2023-05-10T06:45:02;14.90;99.90
1626;DHT22;806;48.770;9.156;2023-05-10T06:47:29;15.00;99.90
1626;DHT22;806;48.770;9.156;2023-05-10T06:49:56;14.80;99.90
1626;DHT22;806;48.770;9.156;2023-05-10T06:52:24;14.90;99.90
1626;DHT22;806;48.770;9.156;2023-05-10T06:54:51;15.10;99.90
1626;DHT22;806;48.770;9.156;2023-05-10T06:57:18;14.90;99.90
1626;DHT22;806;48.770;9.156;2023-05-10T06:59:46;14.90;99.90
1626;DHT22;806;48.770;9.156;2023-05-10T07:02:13;14.90;99.90
1626;DHT22;806;48.770;9.156;2023-05-10T07:04:40;14.90;99.90
1626;DHT22;806;48.770;9.156;2023-05-10T07:07:07;14.90;99.90
1626;DHT22;806;48.770;9.156;2023-05-10T07:09:36;15.00;99.90
1626;DHT22;806;48.770;9.156;2023-05-10T07:12:03;15.00;99.90
1626;DHT22;806;48.770;9.156;2023-05-10T07:14:30;15.10;99.90
1626;DHT22;806;48.770;9.156;2023-05-10T07:16:57;15.20;99.90
1626;DHT22;806;48.770;9.156;2023-05-10T07:19:24;15.30;99.90
1626;DHT22;806;48.770;9.156;2023-05-10T07:21:51;15.50;99.90
1626;DHT22;806;48.770;9.156;2023-05-10T07:24:18;15.50;99.90
1626;DHT22;806;48.770;9.156;2023-05-10T07:26:47;15.50;99.90
1626;DHT22;806;48.770;9.156;2023-05-10T07:29:14;15.60;99.90
1626;DHT22;806;48.770;9.156;2023-05-10T07:31:41;15.80;99.90
1626;DHT22;806;48.770;9.156;2023-05-10T07:34:08;15.80;99.90
1626;DHT22;806;48.770;9.156;2023-05-10T07:36:35;15.70;99.90
1626;DHT22;806;48.770;9.156;2023-05-10T07:39:03;15.80;99.90
1626;DHT22;806;48.770;9.156;2023-05-10T07:41:30;15.70;99.90
1626;DHT22;806;48.770;9.156;2023-05-10T07:43:59;15.60;99.90
1626;DHT22;806;48.770;9.156;2023-05-10T07:46:27;15.70;99.90
1626;DHT22;806;48.770;9.156;2023-05-10T07:48:54;15.70;99.90
1626;DHT22;806;48.770;9.156;2023-05-10T07:51:21;15.80;99.90
1626;DHT22;806;48.770;9.156;2023-05-10T07:53:48;16.20;99.90
1626;DHT22;806;48.770;9.156;2023-05-10T07:56:25;16.20;99.90
1626;DHT22;806;48.770;9.156;2023-05-10T07:58:55;16.20;99.90
1626;DHT22;806;48.770;9.156;2023-05-10T08:01:24;16.10;99.90
1626;DHT22;806;48.770;9.156;2023-05-10T08:03:51;16.00;99.90
1626;DHT22;806;48.770;9.156;2023-05-10T08:06:19;16.10;99.90
1626;DHT22;806;48.770;9.156;2023-05-10T08:08:46;15.90;99.90
1626;DHT22;806;48.770;9.156;2023-05-10T08:11:16;15.90;99.90
1626;DHT22;806;48.770;9.156;2023-05-10T08:13:43;15.90;99.90
1626;DHT22;806;48.770;9.156;2023-05-10T08:16:10;15.80;99.90
1626;DHT22;806;48.770;9.156;2023-05-10T08:18:39;15.80;99.90
1626;DHT22;806;48.770;9.156;2023-05-10T08:21:06;15.90;99.90
1626;DHT22;806;48.770;9.156;2023-05-10T08:23:33;16.00;99.90
1626;DHT22;806;48.770;9.156;2023-05-10T08:26:00;16.20;99.90
1626;DHT22;806;48.770;9.156;2023-05-10T08:28:27;16.30;99.90
1626;DHT22;806;48.770;9.156;2023-05-10T08:30:54;16.40;99.90
1626;DHT22;806;48.770;9.156;2023-05-10T08:33:21;16.60;99.90
1626;DHT22;806;48.770;9.156;2023-05-10T08:35:50;16.70;99.90
1626;DHT22;806;48.770;9.156;2023-05-10T08:38:18;16.70;99.90
1626;DHT22;806;48.770;9.156;2023-05-10T08:40:45;16.50;99.90
1626;DHT22;806;48.770;9.156;2023-05-10T08:43:13;16.30;99.90
1626;DHT22;806;48.770;9.156;2023-05-10T08:45:42;16.10;99.90
1626;DHT22;806;48.770;9.156;2023-05-10T08:48:11;16.10;99.90
1626;DHT22;806;48.770;9.156;2023-05-10T08:50:39;16.30;99.90
1626;DHT22;806;48.770;9.156;2023-05-10T08:53:11;16.30;99.90
1626;DHT22;806;48.770;9.156;2023-05-10T08:55:38;16.20;99.90
1626;DHT22;806;48.770;9.156;2023-05-10T08:58:08;16.30;99.90
1626;DHT22;806;48.770;9.156;2023-05-10T09:00:36;16.20;99.90
1626;DHT22;806;48.770;9.156;2023-05-10T09:03:04;16.20;99.90
1626;DHT22;806;48.770;9.156;2023-05-10T09:05:32;16.30;99.90
1626;DHT22;806;48.770;9.156;2023-05-10T09:07:59;16.70;99.90
1626;DHT22;806;48.770;9.156;2023-05-10T09:10:30;16.80;99.90
1626;DHT22;806;48.770;9.156;2023-05-10T09:12:57;17.00;99.90
1626;DHT22;806;48.770;9.156;2023-05-10T09:15:24;17.20;99.90
1626;DHT22;806;48.770;9.156;2023-05-10T09:17:52;17.30;99.90
1626;DHT22;806;48.770;9.156;2023-05-10T09:20:21;17.10;99.90
1626;DHT22;806;48.770;9.156;2023-05-10T09:22:48;16.90;99.90
1626;DHT22;806;48.770;9.156;2023-05-10T09:25:16;17.00;99.90
1626;DHT22;806;48.770;9.156;2023-05-10T09:27:47;17.00;99.90
1626;DHT22;806;48.770;9.156;2023-05-10T09:30:23;16.70;99.90
1626;DHT22;806;48.770;9.156;2023-05-10T09:32:50;16.70;99.90
1626;DHT22;806;48.770;9.156;2023-05-10T09:35:18;16.70;99.90
1626;DHT22;806;48.770;9.156;2023-05-10T09:37:47;16.90;99.90
1626;DHT22;806;48.770;9.156;2023-05-10T09:40:15;17.30;99.90
1626;DHT22;806;48.770;9.156;2023-05-10T09:42:52;17.60;99.90
1626;DHT22;806;48.770;9.156;2023-05-10T09:45:20;17.70;99.90
1626;DHT22;806;48.770;9.156;2023-05-10T09:47:48;17.90;99.90
1626;DHT22;806;48.770;9.156;2023-05-10T09:50:15;18.10;99.90
1626;DHT22;806;48.770;9.156;2023-05-10T09:52:49;18.30;99.90
1626;DHT22;806;48.770;9.156;2023-05-10T09:55:18;18.40;99.90
1626;DHT22;806;48.770;9.156;2023-05-10T09:57:46;18.40;99.90
1626;DHT22;806;48.770;9.156;2023-05-10T10:00:19;18.20;99.90
1626;DHT22;806;48.770;9.156;2023-05-10T10:02:48;18.10;99.90
1626;DHT22;806;48.770;9.156;2023-05-10T10:05:15;18.10;99.90
1626;DHT22;806;48.770;9.156;2023-05-10T10:07:44;17.90;99.90
1626;DHT22;806;48.770;9.156;2023-05-10T10:10:11;17.70;99.90
1626;DHT22;806;48.770;9.156;2023-05-10T10:12:40;17.80;99.90
1626;DHT22;806;48.770;9.156;2023-05-10T10:15:08;17.90;99.90
1626;DHT22;806;48.770;9.156;2023-05-10T10:17:37;18.00;99.90
1626;DHT22;806;48.770;9.156;2023-05-10T10:20:06;18.20;99.90
1626;DHT22;806;48.770;9.156;2023-05-10T10:22:34;18.40;99.90
1626;DHT22;806;48.770;9.156;2023-05-10T10:25:01;18.20;99.90
1626;DHT22;806;48.770;9.156;2023-05-10T10:27:36;18.30;99.90
1626;DHT22;806;48.770;9.156;2023-05-10T10:30:13;18.20;99.90
1626;DHT22;806;48.770;9.156;2023-05-10T10:33:10;18.40;99.90
1626;DHT22;806;48.770;9.156;2023-05-10T10:35:40;18.50;99.90
1626;DHT22;806;48.770;9.156;2023-05-10T10:38:08;18.60;99.90
1626;DHT22;806;48.770;9.156;2023-05-10T10:40:35;18.60;99.90
1626;DHT22;806;48.770;9.156;2023-05-10T10:43:22;18.60;99.90
1626;DHT22;806;48.770;9.156;2023-05-10T10:46:13;18.20;99.90
1626;DHT22;806;48.770;9.156;2023-05-10T10:48:47;18.20;99.90
1626;DHT22;806;48.770;9.156;2023-05-10T10:51:15;18.10;99.90
1626;DHT22;806;48.770;9.156;2023-05-10T10:53:43;17.90;99.90
1626;DHT22;806;48.770;9.156;2023-05-10T10:56:11;17.80;99.90
1626;DHT22;806;48.770;9.156;2023-05-10T10:58:41;17.80;99.90
1626;DHT22;806;48.770;9.156;2023-05-10T11:01:15;17.60;99.90
1626;DHT22;806;48.770;9.156;2023-05-10T11:04:18;17.40;99.90
1626;DHT22;806;48.770;9.156;2023-05-10T11:06:46;17.30;99.90
1626;DHT22;806;48.770;9.156;2023-05-10T11:09:14;17.30;99.90
1626;DHT22;806;48.770;9.156;2023-05-10T11:11:52;17.20;99.90
1626;DHT22;806;48.770;9.156;2023-05-10T11:14:21;16.80;99.90
1626;DHT22;806;48.770;9.156;2023-05-10T11:16:48;16.70;99.90
1626;DHT22;806;48.770;9.156;2023-05-10T11:19:17;16.30;99.90
1626;DHT22;806;48.770;9.156;2023-05-10T11:21:46;16.30;99.90
1626;DHT22;806;48.770;9.156;2023-05-10T11:24:15;16.30;99.90
1626;DHT22;806;48.770;9.156;2023-05-10T11:26:42;16.60;99.90
1626;DHT22;806;48.770;9.156;2023-05-10T11:29:09;16.80;99.90
1626;DHT22;806;48.770;9.156;2023-05-10T11:31:42;17.10;99.90
1626;DHT22;806;48.770;9.156;2023-05-10T11:34:10;17.20;99.90
1626;DHT22;806;48.770;9.156;2023-05-10T11:36:39;17.40;99.90
1626;DHT22;806;48.770;9.156;2023-05-10T11:39:06;17.60;99.90
1626;DHT22;806;48.770;9.156;2023-05-10T11:41:33;17.90;99.90
1626;DHT22;806;48.770;9.156;2023-05-10T11:44:02;17.90;99.90
1626;DHT22;806;48.770;9.156;2023-05-10T11:46:29;17.40;99.90
1626;DHT22;806;48.770;9.156;2023-05-10T11:48:57;17.30;99.90
1626;DHT22;806;48.770;9.156;2023-05-10T11:51:26;17.40;99.90
1626;DHT22;806;48.770;9.156;2023-05-10T11:53:55;17.40;99.90
1626;DHT22;806;48.770;9.156;2023-05-10T11:56:23;17.40;99.90
1626;DHT22;806;48.770;9.156;2023-05-10T11:58:55;17.00;99.90
1626;DHT22;806;48.770;9.156;2023-05-10T12:01:23;16.90;99.90
1626;DHT22;806;48.770;9.156;2023-05-10T12:03:54;17.00;99.90
1626;DHT22;806;48.770;9.156;2023-05-10T12:06:28;17.10;99.90
1626;DHT22;806;48.770;9.156;2023-05-10T12:08:58;17.10;99.90
1626;DHT22;806;48.770;9.156;2023-05-10T12:11:26;16.80;99.90
1626;DHT22;806;48.770;9.156;2023-05-10T12:13:54;16.70;99.90
1626;DHT22;806;48.770;9.156;2023-05-10T12:16:23;16.60;99.90
1626;DHT22;806;48.770;9.156;2023-05-10T12:18:51;16.80;99.90
1626;DHT22;806;48.770;9.156;2023-05-10T12:21:19;17.20;99.90
1626;DHT22;806;48.770;9.156;2023-05-10T12:23:48;17.50;99.90
1626;DHT22;806;48.770;9.156;2023-05-10T12:26:16;17.70;99.90
1626;DHT22;806;48.770;9.156;2023-05-10T12:28:43;17.80;99.90
1626;DHT22;806;48.770;9.156;2023-05-10T12:31:11;17.90;99.90
1626;DHT22;806;48.770;9.156;2023-05-10T12:33:39;17.90;99.90
1626;DHT22;806;48.770;9.156;2023-05-10T12:36:09;17.90;99.90
1626;DHT22;806;48.770;9.156;2023-05-10T12:38:38;17.90;99.90
1626;DHT22;806;48.770;9.156;2023-05-10T12:41:06;17.80;99.90
1626;DHT22;806;48.770;9.156;2023-05-10T12:43:35;17.70;99.90
1626;DHT22;806;48.770;9.156;2023-05-10T12:46:06;17.80;99.90
1626;DHT22;806;48.770;9.156;2023-05-10T12:48:34;17.80;99.90
1626;DHT22;806;48.770;9.156;2023-05-10T12:51:01;17.80;99.90
1626;DHT22;806;48.770;9.156;2023-05-10T12:53:28;17.60;99.90
1626;DHT22;806;48.770;9.156;2023-05-10T12:55:55;17.60;99.90
1626;DHT22;806;48.770;9.156;2023-05-10T12:58:22;17.70;99.90
1626;DHT22;806;48.770;9.156;2023-05-10T13:00:51;17.70;99.90
1626;DHT22;806;48.770;9.156;2023-05-10T13:03:18;17.40;99.90
1626;DHT22;806;48.770;9.156;2023-05-10T13:05:45;17.40;99.90
1626;DHT22;806;48.770;9.156;2023-05-10T13:08:12;17.30;99.90
1626;DHT22;806;48.770;9.156;2023-05-10T13:10:39;17.20;99.90
1626;DHT22;806;48.770;9.156;2023-05-10T13:13:07;17.00;99.90
1626;DHT22;806;48.770;9.156;2023-05-10T13:15:34;16.90;99.90
1626;DHT22;806;48.770;9.156;2023-05-10T13:18:02;17.00;99.90
1626;DHT22;806;48.770;9.156;2023-05-10T13:20:29;17.30;99.90
1626;DHT22;806;48.770;9.156;2023-05-10T13:22:56;17.50;99.90
1626;DHT22;806;48.770;9.156;2023-05-10T13:25:23;17.70;99.90
1626;DHT22;806;48.770;9.156;2023-05-10T13:27:50;17.50;99.90
1626;DHT22;806;48.770;9.156;2023-05-10T13:30:17;17.50;99.90
1626;DHT22;806;48.770;9.156;2023-05-10T13:32:44;17.80;99.90
1626;DHT22;806;48.770;9.156;2023-05-10T13:35:13;17.90;99.90
1626;DHT22;806;48.770;9.156;2023-05-10T13:37:40;18.00;99.90
1626;DHT22;806;48.770;9.156;2023-05-10T13:40:08;18.10;99.90
1626;DHT22;806;48.770;9.156;2023-05-10T13:42:35;18.20;99.90
1626;DHT22;806;48.770;9.156;2023-05-10T13:45:03;18.30;99.90
1626;DHT22;806;48.770;9.156;2023-05-10T13:47:30;18.30;99.90
1626;DHT22;806;48.770;9.156;2023-05-10T13:49:57;18.00;99.90
1626;DHT22;806;48.770;9.156;2023-05-10T13:52:26;18.00;99.90
1626;DHT22;806;48.770;9.156;2023-05-10T13:54:53;18.00;99.90
1626;DHT22;806;48.770;9.156;2023-05-10T13:57:21;17.90;99.90
1626;DHT22;806;48.770;9.156;2023-05-10T13:59:49;17.80;99.90
1626;DHT22;806;48.770;9.156;2023-05-10T14:02:17;17.80;99.90
1626;DHT22;806;48.770;9.156;2023-05-10T14:04:44;17.90;99.90
1626;DHT22;806;48.770;9.156;2023-05-10T14:07:13;17.90;99.90
1626;DHT22;806;48.770;9.156;2023-05-10T14:09:42;17.70;99.90
1626;DHT22;806;48.770;9.156;2023-05-10T14:12:09;18.00;99.90
1626;DHT22;806;48.770;9.156;2023-05-10T14:14:36;18.20;99.90
1626;DHT22;806;48.770;9.156;2023-05-10T14:17:03;18.30;99.90
1626;DHT22;806;48.770;9.156;2023-05-10T14:19:30;18.40;99.90
1626;DHT22;806;48.770;9.156;2023-05-10T14:21:58;18.20;99.90
1626;DHT22;806;48.770;9.156;2023-05-10T14:24:25;18.10;99.90
1626;DHT22;806;48.770;9.156;2023-05-10T14:26:53;18.20;99.90
1626;DHT22;806;48.770;9.156;2023-05-10T14:29:20;18.00;99.90
1626;DHT22;806;48.770;9.156;2023-05-10T14:31:48;17.90;99.90
1626;DHT22;806;48.770;9.156;2023-05-10T14:34:15;17.90;99.90
1626;DHT22;806;48.770;9.156;2023-05-10T14:36:42;18.10;99.90
1626;DHT22;806;48.770;9.156;2023-05-10T14:39:08;18.20;99.90
1626;DHT22;806;48.770;9.156;2023-05-10T14:41:38;18.40;99.90
1626;DHT22;806;48.770;9.156;2023-05-10T14:44:07;18.50;99.90
1626;DHT22;806;48.770;9.156;2023-05-10T14:46:35;18.40;99.90
1626;DHT22;806;48.770;9.156;2023-05-10T14:49:03;18.10;99.90
1626;DHT22;806;48.770;9.156;2023-05-10T14:51:39;18.20;99.90
1626;DHT22;806;48.770;9.156;2023-05-10T14:54:08;18.20;99.90
1626;DHT22;806;48.770;9.156;2023-05-10T14:56:36;18.10;99.90
1626;DHT22;806;48.770;9.156;2023-05-10T14:59:05;18.20;99.90
1626;DHT22;806;48.770;9.156;2023-05-10T15:01:35;18.20;99.90
1626;DHT22;806;48.770;9.156;2023-05-10T15:04:05;18.30;99.90
1626;DHT22;806;48.770;9.156;2023-05-10T15:06:34;18.30;99.90
1626;DHT22;806;48.770;9.156;2023-05-10T15:09:02;18.30;99.90
1626;DHT22;806;48.770;9.156;2023-05-10T15:11:30;18.10;99.90
1626;DHT22;806;48.770;9.156;2023-05-10T15:13:59;18.30;99.90
1626;DHT22;806;48.770;9.156;2023-05-10T15:16:27;18.50;99.90
1626;DHT22;806;48.770;9.156;2023-05-10T15:18:57;18.30;99.90
1626;DHT22;806;48.770;9.156;2023-05-10T15:21:26;18.40;99.90
1626;DHT22;806;48.770;9.156;2023-05-10T15:23:56;18.50;99.90
1626;DHT22;806;48.770;9.156;2023-05-10T15:26:23;18.40;99.90
1626;DHT22;806;48.770;9.156;2023-05-10T15:28:51;18.60;99.90
1626;DHT22;806;48.770;9.156;2023-05-10T15:31:18;18.70;99.90
1626;DHT22;806;48.770;9.156;2023-05-10T15:33:45;18.60;99.90
1626;DHT22;806;48.770;9.156;2023-05-10T15:36:14;18.60;99.90
1626;DHT22;806;48.770;9.156;2023-05-10T15:38:43;18.40;99.90
1626;DHT22;806;48.770;9.156;2023-05-10T15:41:14;18.30;99.90
1626;DHT22;806;48.770;9.156;2023-05-10T15:43:45;18.30;99.90
1626;DHT22;806;48.770;9.156;2023-05-10T15:46:12;18.30;99.90
1626;DHT22;806;48.770;9.156;2023-05-10T15:48:39;18.30;99.90
1626;DHT22;806;48.770;9.156;2023-05-10T15:51:06;18.40;99.90
1626;DHT22;806;48.770;9.156;2023-05-10T15:53:34;18.60;99.90
1626;DHT22;806;48.770;9.156;2023-05-10T15:56:44;18.70;99.90
1626;DHT22;806;48.770;9.156;2023-05-10T15:59:02;18.60;99.90
1626;DHT22;806;48.770;9.156;2023-05-10T16:01:30;18.20;99.90
1626;DHT22;806;48.770;9.156;2023-05-10T16:03:57;18.10;99.90
1626;DHT22;806;48.770;9.156;2023-05-10T16:06:25;17.90;99.90
1626;DHT22;806;48.770;9.156;2023-05-10T16:08:53;17.60;99.90
1626;DHT22;806;48.770;9.156;2023-05-10T16:11:20;17.50;99.90
1626;DHT22;806;48.770;9.156;2023-05-10T16:13:47;17.60;99.90
1626;DHT22;806;48.770;9.156;2023-05-10T16:16:14;17.70;99.90
1626;DHT22;806;48.770;9.156;2023-05-10T16:18:41;17.90;99.90
1626;DHT22;806;48.770;9.156;2023-05-10T16:21:08;18.00;99.90
1626;DHT22;806;48.770;9.156;2023-05-10T16:23:35;18.00;99.90
1626;DHT22;806;48.770;9.156;2023-05-10T16:26:04;17.90;99.90
1626;DHT22;806;48.770;9.156;2023-05-10T16:28:31;17.90;99.90